sensor_id;sensor_type;location;lat;lon;timestamp;P1;durP1;ratioP1;P2;durP2;ratioP2
64188;SDS011;50493;50.970;10.082;2023-05-07T00:01:46;32.65;;;21.40;;
64188;SDS011;50493;50.970;10.082;2023-05-07T00:04:11;28.42;;;18.55;;
64188;SDS011;50493;50.970;10.082;2023-05-07T00:06:38;21.33;;;13.50;;
64188;SDS011;50493;50.970;10.082;2023-05-07T00:09:04;19.60;;;13.70;;
64188;SDS011;50493;50.970;10.082;2023-05-07T00:11:29;19.08;;;12.70;;
64188;SDS011;50493;50.970;10.082;2023-05-07T00:13:55;33.80;;;21.40;;
64188;SDS011;50493;50.970;10.082;2023-05-07T00:16:20;31.58;;;19.55;;
64188;SDS011;50493;50.970;10.082;2023-05-07T00:18:47;19.67;;;13.77;;
64188;SDS011;50493;50.970;10.082;2023-05-07T00:21:12;24.30;;;15.82;;
64188;SDS011;50493;50.970;10.082;2023-05-07T00:23:38;29.77;;;19.42;;
64188;SDS011;50493;50.970;10.082;2023-05-07T00:26:03;34.40;;;21.45;;
64188;SDS011;50493;50.970;10.082;2023-05-07T00:28:28;30.77;;;19.50;;
64188;SDS011;50493;50.970;10.082;2023-05-07T00:30:54;19.13;;;13.35;;
64188;SDS011;50493;50.970;10.082;2023-05-07T00:33:19;27.38;;;18.77;;
64188;SDS011;50493;50.970;10.082;2023-05-07T00:35:47;26.50;;;16.67;;
64188;SDS011;50493;50.970;10.082;2023-05-07T00:38:12;23.80;;;15.02;;
64188;SDS011;50493;50.970;10.082;2023-05-07T00:40:38;28.73;;;17.92;;
64188;SDS011;50493;50.970;10.082;2023-05-07T00:43:03;27.00;;;17.25;;
64188;SDS011;50493;50.970;10.082;2023-05-07T00:45:29;29.95;;;18.83;;
64188;SDS011;50493;50.970;10.082;2023-05-07T00:47:55;29.08;;;18.80;;
64188;SDS011;50493;50.970;10.082;2023-05-07T00:50:20;28.55;;;18.08;;
64188;SDS011;50493;50.970;10.082;2023-05-07T00:52:47;27.00;;;16.95;;
64188;SDS011;50493;50.970;10.082;2023-05-07T00:55:13;23.25;;;14.50;;
64188;SDS011;50493;50.970;10.082;2023-05-07T00:57:40;27.00;;;16.52;;
64188;SDS011;50493;50.970;10.082;2023-05-07T01:00:06;24.27;;;16.70;;
64188;SDS011;50493;50.970;10.082;2023-05-07T01:02:33;28.88;;;18.17;;
64188;SDS011;50493;50.970;10.082;2023-05-07T01:04:59;42.72;;;24.98;;
64188;SDS011;50493;50.970;10.082;2023-05-07T01:07:25;45.70;;;27.17;;
64188;SDS011;50493;50.970;10.082;2023-05-07T01:09:53;37.75;;;23.38;;
64188;SDS011;50493;50.970;10.082;2023-05-07T01:12:19;36.60;;;22.23;;
64188;SDS011;50493;50.970;10.082;2023-05-07T01:14:45;48.08;;;27.95;;
64188;SDS011;50493;50.970;10.082;2023-05-07T01:17:10;36.97;;;21.98;;
64188;SDS011;50493;50.970;10.082;2023-05-07T01:19:35;34.70;;;21.05;;
64188;SDS011;50493;50.970;10.082;2023-05-07T01:22:02;27.00;;;17.45;;
64188;SDS011;50493;50.970;10.082;2023-05-07T01:24:30;25.50;;;15.57;;
64188;SDS011;50493;50.970;10.082;2023-05-07T01:26:56;38.42;;;24.00;;
64188;SDS011;50493;50.970;10.082;2023-05-07T01:29:22;29.33;;;18.25;;
64188;SDS011;50493;50.970;10.082;2023-05-07T01:31:47;25.23;;;16.45;;
64188;SDS011;50493;50.970;10.082;2023-05-07T01:34:14;36.63;;;22.15;;
64188;SDS011;50493;50.970;10.082;2023-05-07T01:36:42;33.55;;;21.05;;
64188;SDS011;50493;50.970;10.082;2023-05-07T01:39:08;32.92;;;20.27;;
64188;SDS011;50493;50.970;10.082;2023-05-07T01:41:36;31.35;;;18.88;;
64188;SDS011;50493;50.970;10.082;2023-05-07T01:44:03;30.90;;;19.00;;
64188;SDS011;50493;50.970;10.082;2023-05-07T01:46:29;24.23;;;15.60;;
64188;SDS011;50493;50.970;10.082;2023-05-07T01:48:56;27.55;;;17.65;;
64188;SDS011;50493;50.970;10.082;2023-05-07T01:51:21;28.00;;;17.83;;
64188;SDS011;50493;50.970;10.082;2023-05-07T01:53:47;27.25;;;17.40;;
64188;SDS011;50493;50.970;10.082;2023-05-07T01:56:15;28.33;;;16.77;;
64188;SDS011;50493;50.970;10.082;2023-05-07T01:58:42;33.42;;;20.13;;
64188;SDS011;50493;50.970;10.082;2023-05-07T02:01:07;24.38;;;16.50;;
64188;SDS011;50493;50.970;10.082;2023-05-07T02:03:33;29.83;;;18.10;;
64188;SDS011;50493;50.970;10.082;2023-05-07T02:05:58;30.90;;;19.10;;
64188;SDS011;50493;50.970;10.082;2023-05-07T02:08:23;29.20;;;17.92;;
64188;SDS011;50493;50.970;10.082;2023-05-07T02:10:49;24.98;;;16.35;;
64188;SDS011;50493;50.970;10.082;2023-05-07T02:13:16;35.08;;;21.65;;
64188;SDS011;50493;50.970;10.082;2023-05-07T02:15:43;34.85;;;21.73;;
64188;SDS011;50493;50.970;10.082;2023-05-07T02:18:12;25.92;;;16.48;;
64188;SDS011;50493;50.970;10.082;2023-05-07T02:20:38;33.70;;;20.73;;
64188;SDS011;50493;50.970;10.082;2023-05-07T02:23:04;29.25;;;17.55;;
64188;SDS011;50493;50.970;10.082;2023-05-07T02:25:29;29.33;;;18.42;;
64188;SDS011;50493;50.970;10.082;2023-05-07T02:27:55;30.98;;;19.23;;
64188;SDS011;50493;50.970;10.082;2023-05-07T02:30:20;28.98;;;17.05;;
64188;SDS011;50493;50.970;10.082;2023-05-07T02:32:47;32.80;;;18.48;;
64188;SDS011;50493;50.970;10.082;2023-05-07T02:35:13;25.13;;;15.50;;
64188;SDS011;50493;50.970;10.082;2023-05-07T02:37:38;24.42;;;15.90;;
64188;SDS011;50493;50.970;10.082;2023-05-07T02:40:04;37.08;;;23.13;;
64188;SDS011;50493;50.970;10.082;2023-05-07T02:42:30;29.85;;;18.65;;
64188;SDS011;50493;50.970;10.082;2023-05-07T02:44:56;39.45;;;22.27;;
64188;SDS011;50493;50.970;10.082;2023-05-07T02:47:21;38.28;;;21.60;;
64188;SDS011;50493;50.970;10.082;2023-05-07T02:49:48;33.22;;;19.77;;
64188;SDS011;50493;50.970;10.082;2023-05-07T02:52:14;32.70;;;20.42;;
64188;SDS011;50493;50.970;10.082;2023-05-07T02:54:39;36.97;;;21.98;;
64188;SDS011;50493;50.970;10.082;2023-05-07T02:57:05;27.52;;;16.30;;
64188;SDS011;50493;50.970;10.082;2023-05-07T02:59:30;36.72;;;21.55;;
64188;SDS011;50493;50.970;10.082;2023-05-07T03:01:55;26.63;;;16.88;;
64188;SDS011;50493;50.970;10.082;2023-05-07T03:04:21;33.25;;;19.55;;
64188;SDS011;50493;50.970;10.082;2023-05-07T03:06:47;38.53;;;21.95;;
64188;SDS011;50493;50.970;10.082;2023-05-07T03:09:13;33.50;;;18.90;;
64188;SDS011;50493;50.970;10.082;2023-05-07T03:11:38;34.65;;;20.27;;
64188;SDS011;50493;50.970;10.082;2023-05-07T03:14:04;32.95;;;19.80;;
64188;SDS011;50493;50.970;10.082;2023-05-07T03:16:29;35.22;;;20.83;;
64188;SDS011;50493;50.970;10.082;2023-05-07T03:18:55;39.58;;;21.80;;
64188;SDS011;50493;50.970;10.082;2023-05-07T03:21:20;32.33;;;18.65;;
64188;SDS011;50493;50.970;10.082;2023-05-07T03:23:47;40.65;;;23.77;;
64188;SDS011;50493;50.970;10.082;2023-05-07T03:26:12;37.47;;;22.27;;
64188;SDS011;50493;50.970;10.082;2023-05-07T03:28:37;25.73;;;15.18;;
64188;SDS011;50493;50.970;10.082;2023-05-07T03:31:03;31.27;;;17.83;;
64188;SDS011;50493;50.970;10.082;2023-05-07T03:33:28;29.02;;;16.30;;
64188;SDS011;50493;50.970;10.082;2023-05-07T03:35:54;32.15;;;19.80;;
64188;SDS011;50493;50.970;10.082;2023-05-07T03:38:19;33.30;;;18.55;;
64188;SDS011;50493;50.970;10.082;2023-05-07T03:40:46;25.42;;;15.00;;
64188;SDS011;50493;50.970;10.082;2023-05-07T03:43:11;30.55;;;16.80;;
64188;SDS011;50493;50.970;10.082;2023-05-07T03:45:36;25.92;;;15.20;;
64188;SDS011;50493;50.970;10.082;2023-05-07T03:48:02;31.77;;;16.50;;
64188;SDS011;50493;50.970;10.082;2023-05-07T03:50:27;35.20;;;19.77;;
64188;SDS011;50493;50.970;10.082;2023-05-07T03:52:53;35.53;;;18.75;;
64188;SDS011;50493;50.970;10.082;2023-05-07T03:55:18;33.88;;;18.42;;
64188;SDS011;50493;50.970;10.082;2023-05-07T03:57:45;31.55;;;18.30;;
64188;SDS011;50493;50.970;10.082;2023-05-07T04:00:11;24.17;;;14.27;;
64188;SDS011;50493;50.970;10.082;2023-05-07T04:02:38;38.70;;;19.55;;
64188;SDS011;50493;50.970;10.082;2023-05-07T04:05:03;37.38;;;18.95;;
64188;SDS011;50493;50.970;10.082;2023-05-07T04:07:29;26.67;;;13.90;;
64188;SDS011;50493;50.970;10.082;2023-05-07T04:09:54;29.55;;;16.13;;
64188;SDS011;50493;50.970;10.082;2023-05-07T04:12:19;35.17;;;18.13;;
64188;SDS011;50493;50.970;10.082;2023-05-07T04:14:46;34.58;;;19.33;;
64188;SDS011;50493;50.970;10.082;2023-05-07T04:17:11;34.13;;;17.85;;
64188;SDS011;50493;50.970;10.082;2023-05-07T04:19:37;28.23;;;15.35;;
64188;SDS011;50493;50.970;10.082;2023-05-07T04:22:02;25.67;;;14.80;;
64188;SDS011;50493;50.970;10.082;2023-05-07T04:24:30;25.73;;;14.52;;
64188;SDS011;50493;50.970;10.082;2023-05-07T04:26:56;25.20;;;14.45;;
64188;SDS011;50493;50.970;10.082;2023-05-07T04:29:23;28.63;;;15.57;;
64188;SDS011;50493;50.970;10.082;2023-05-07T04:31:50;24.42;;;14.40;;
64188;SDS011;50493;50.970;10.082;2023-05-07T04:34:15;30.75;;;15.38;;
64188;SDS011;50493;50.970;10.082;2023-05-07T04:36:41;31.00;;;16.42;;
64188;SDS011;50493;50.970;10.082;2023-05-07T04:39:07;31.67;;;16.73;;
64188;SDS011;50493;50.970;10.082;2023-05-07T04:41:32;31.25;;;17.38;;
64188;SDS011;50493;50.970;10.082;2023-05-07T04:43:58;28.95;;;16.50;;
64188;SDS011;50493;50.970;10.082;2023-05-07T04:46:23;41.35;;;19.38;;
64188;SDS011;50493;50.970;10.082;2023-05-07T04:48:51;42.42;;;21.17;;
64188;SDS011;50493;50.970;10.082;2023-05-07T04:51:16;40.45;;;19.65;;
64188;SDS011;50493;50.970;10.082;2023-05-07T04:53:41;33.13;;;17.48;;
64188;SDS011;50493;50.970;10.082;2023-05-07T04:56:08;41.03;;;19.50;;
64188;SDS011;50493;50.970;10.082;2023-05-07T04:58:33;40.63;;;18.70;;
64188;SDS011;50493;50.970;10.082;2023-05-07T05:00:58;42.63;;;19.75;;
64188;SDS011;50493;50.970;10.082;2023-05-07T05:03:25;39.75;;;19.77;;
64188;SDS011;50493;50.970;10.082;2023-05-07T05:05:52;43.22;;;19.95;;
64188;SDS011;50493;50.970;10.082;2023-05-07T05:08:17;38.17;;;17.85;;
64188;SDS011;50493;50.970;10.082;2023-05-07T05:10:43;32.88;;;16.65;;
64188;SDS011;50493;50.970;10.082;2023-05-07T05:13:08;37.15;;;18.45;;
64188;SDS011;50493;50.970;10.082;2023-05-07T05:15:34;32.63;;;17.15;;
64188;SDS011;50493;50.970;10.082;2023-05-07T05:17:59;35.78;;;17.50;;
64188;SDS011;50493;50.970;10.082;2023-05-07T05:20:25;42.28;;;19.63;;
64188;SDS011;50493;50.970;10.082;2023-05-07T05:22:52;38.58;;;17.75;;
64188;SDS011;50493;50.970;10.082;2023-05-07T05:25:17;40.60;;;19.60;;
64188;SDS011;50493;50.970;10.082;2023-05-07T05:27:43;29.05;;;15.27;;
64188;SDS011;50493;50.970;10.082;2023-05-07T05:30:09;42.55;;;20.02;;
64188;SDS011;50493;50.970;10.082;2023-05-07T05:35:04;33.40;;;15.27;;
64188;SDS011;50493;50.970;10.082;2023-05-07T05:37:29;41.45;;;19.13;;
64188;SDS011;50493;50.970;10.082;2023-05-07T05:39:57;34.13;;;16.27;;
64188;SDS011;50493;50.970;10.082;2023-05-07T05:42:23;41.40;;;19.30;;
64188;SDS011;50493;50.970;10.082;2023-05-07T05:44:48;37.50;;;18.00;;
64188;SDS011;50493;50.970;10.082;2023-05-07T05:47:13;30.05;;;15.00;;
64188;SDS011;50493;50.970;10.082;2023-05-07T05:49:39;30.30;;;15.23;;
64188;SDS011;50493;50.970;10.082;2023-05-07T05:52:04;35.90;;;17.50;;
64188;SDS011;50493;50.970;10.082;2023-05-07T05:54:30;25.73;;;13.70;;
64188;SDS011;50493;50.970;10.082;2023-05-07T05:56:56;24.75;;;13.15;;
64188;SDS011;50493;50.970;10.082;2023-05-07T05:59:22;30.33;;;14.52;;
64188;SDS011;50493;50.970;10.082;2023-05-07T06:01:48;28.33;;;14.00;;
64188;SDS011;50493;50.970;10.082;2023-05-07T06:04:13;25.15;;;13.40;;
64188;SDS011;50493;50.970;10.082;2023-05-07T06:06:38;26.85;;;14.13;;
64188;SDS011;50493;50.970;10.082;2023-05-07T06:09:04;38.58;;;17.52;;
64188;SDS011;50493;50.970;10.082;2023-05-07T06:11:29;34.33;;;16.00;;
64188;SDS011;50493;50.970;10.082;2023-05-07T06:13:57;35.33;;;16.13;;
64188;SDS011;50493;50.970;10.082;2023-05-07T06:16:24;37.58;;;18.42;;
64188;SDS011;50493;50.970;10.082;2023-05-07T06:18:49;30.67;;;15.23;;
64188;SDS011;50493;50.970;10.082;2023-05-07T06:21:15;31.85;;;15.63;;
64188;SDS011;50493;50.970;10.082;2023-05-07T06:23:40;25.13;;;13.13;;
64188;SDS011;50493;50.970;10.082;2023-05-07T06:26:05;31.63;;;16.38;;
64188;SDS011;50493;50.970;10.082;2023-05-07T06:28:31;31.25;;;15.65;;
64188;SDS011;50493;50.970;10.082;2023-05-07T06:31:11;36.60;;;19.65;;
64188;SDS011;50493;50.970;10.082;2023-05-07T06:33:37;28.60;;;15.25;;
64188;SDS011;50493;50.970;10.082;2023-05-07T06:36:03;25.55;;;12.85;;
64188;SDS011;50493;50.970;10.082;2023-05-07T06:38:29;23.08;;;12.30;;
64188;SDS011;50493;50.970;10.082;2023-05-07T06:40:54;24.25;;;12.30;;
64188;SDS011;50493;50.970;10.082;2023-05-07T06:43:22;27.73;;;13.85;;
64188;SDS011;50493;50.970;10.082;2023-05-07T06:45:47;23.55;;;12.65;;
64188;SDS011;50493;50.970;10.082;2023-05-07T06:48:14;26.92;;;13.85;;
64188;SDS011;50493;50.970;10.082;2023-05-07T06:50:39;28.95;;;14.55;;
64188;SDS011;50493;50.970;10.082;2023-05-07T06:53:05;28.15;;;14.43;;
64188;SDS011;50493;50.970;10.082;2023-05-07T06:55:30;28.13;;;15.38;;
64188;SDS011;50493;50.970;10.082;2023-05-07T06:57:56;27.67;;;13.48;;
64188;SDS011;50493;50.970;10.082;2023-05-07T07:00:25;24.65;;;13.45;;
64188;SDS011;50493;50.970;10.082;2023-05-07T07:02:51;25.80;;;14.18;;
64188;SDS011;50493;50.970;10.082;2023-05-07T07:05:18;24.05;;;13.15;;
64188;SDS011;50493;50.970;10.082;2023-05-07T07:07:43;24.35;;;13.15;;
64188;SDS011;50493;50.970;10.082;2023-05-07T07:10:09;26.27;;;13.88;;
64188;SDS011;50493;50.970;10.082;2023-05-07T07:12:34;19.65;;;10.63;;
64188;SDS011;50493;50.970;10.082;2023-05-07T07:15:00;23.13;;;12.73;;
64188;SDS011;50493;50.970;10.082;2023-05-07T07:17:25;21.50;;;13.65;;
64188;SDS011;50493;50.970;10.082;2023-05-07T07:19:50;20.30;;;11.93;;
64188;SDS011;50493;50.970;10.082;2023-05-07T07:22:17;21.13;;;11.57;;
64188;SDS011;50493;50.970;10.082;2023-05-07T07:24:42;22.35;;;12.68;;
64188;SDS011;50493;50.970;10.082;2023-05-07T07:27:08;22.83;;;12.55;;
64188;SDS011;50493;50.970;10.082;2023-05-07T07:29:33;20.83;;;11.57;;
64188;SDS011;50493;50.970;10.082;2023-05-07T07:31:59;22.20;;;12.85;;
64188;SDS011;50493;50.970;10.082;2023-05-07T07:34:24;20.05;;;11.05;;
64188;SDS011;50493;50.970;10.082;2023-05-07T07:36:49;18.73;;;10.65;;
64188;SDS011;50493;50.970;10.082;2023-05-07T07:39:16;23.42;;;11.77;;
64188;SDS011;50493;50.970;10.082;2023-05-07T07:41:41;21.27;;;11.20;;
64188;SDS011;50493;50.970;10.082;2023-05-07T07:44:07;21.02;;;11.25;;
64188;SDS011;50493;50.970;10.082;2023-05-07T07:46:33;20.05;;;10.90;;
64188;SDS011;50493;50.970;10.082;2023-05-07T07:48:59;17.33;;;9.40;;
64188;SDS011;50493;50.970;10.082;2023-05-07T07:51:25;19.95;;;10.32;;
64188;SDS011;50493;50.970;10.082;2023-05-07T07:53:51;19.17;;;10.10;;
64188;SDS011;50493;50.970;10.082;2023-05-07T07:56:18;20.02;;;10.73;;
64188;SDS011;50493;50.970;10.082;2023-05-07T07:58:43;18.48;;;10.95;;
64188;SDS011;50493;50.970;10.082;2023-05-07T08:01:08;17.50;;;9.60;;
64188;SDS011;50493;50.970;10.082;2023-05-07T08:03:34;18.67;;;10.40;;
64188;SDS011;50493;50.970;10.082;2023-05-07T08:06:00;16.67;;;9.45;;
64188;SDS011;50493;50.970;10.082;2023-05-07T08:08:25;16.55;;;9.55;;
64188;SDS011;50493;50.970;10.082;2023-05-07T08:10:51;17.73;;;10.60;;
64188;SDS011;50493;50.970;10.082;2023-05-07T08:13:18;17.40;;;10.82;;
64188;SDS011;50493;50.970;10.082;2023-05-07T08:15:43;14.90;;;8.90;;
64188;SDS011;50493;50.970;10.082;2023-05-07T08:18:08;16.00;;;9.00;;
64188;SDS011;50493;50.970;10.082;2023-05-07T08:20:34;17.27;;;9.60;;
64188;SDS011;50493;50.970;10.082;2023-05-07T08:23:04;14.43;;;8.63;;
64188;SDS011;50493;50.970;10.082;2023-05-07T08:25:32;18.05;;;10.00;;
64188;SDS011;50493;50.970;10.082;2023-05-07T08:27:57;15.73;;;8.65;;
64188;SDS011;50493;50.970;10.082;2023-05-07T08:30:24;16.58;;;9.65;;
64188;SDS011;50493;50.970;10.082;2023-05-07T08:32:49;15.13;;;9.18;;
64188;SDS011;50493;50.970;10.082;2023-05-07T08:35:15;15.20;;;8.55;;
64188;SDS011;50493;50.970;10.082;2023-05-07T08:37:40;18.65;;;11.07;;
64188;SDS011;50493;50.970;10.082;2023-05-07T08:40:06;15.45;;;9.00;;
64188;SDS011;50493;50.970;10.082;2023-05-07T08:42:33;17.45;;;11.05;;
64188;SDS011;50493;50.970;10.082;2023-05-07T08:45:01;16.23;;;10.27;;
64188;SDS011;50493;50.970;10.082;2023-05-07T08:47:34;13.98;;;8.27;;
64188;SDS011;50493;50.970;10.082;2023-05-07T08:50:04;16.00;;;9.15;;
64188;SDS011;50493;50.970;10.082;2023-05-07T08:52:31;19.63;;;10.57;;
64188;SDS011;50493;50.970;10.082;2023-05-07T08:54:56;14.02;;;7.82;;
64188;SDS011;50493;50.970;10.082;2023-05-07T08:57:23;19.05;;;12.02;;
64188;SDS011;50493;50.970;10.082;2023-05-07T08:59:49;15.95;;;9.27;;
64188;SDS011;50493;50.970;10.082;2023-05-07T09:02:15;20.15;;;10.75;;
64188;SDS011;50493;50.970;10.082;2023-05-07T09:04:42;17.52;;;10.73;;
64188;SDS011;50493;50.970;10.082;2023-05-07T09:07:07;15.77;;;9.93;;
64188;SDS011;50493;50.970;10.082;2023-05-07T09:09:33;16.48;;;9.98;;
64188;SDS011;50493;50.970;10.082;2023-05-07T09:11:58;14.88;;;8.75;;
64188;SDS011;50493;50.970;10.082;2023-05-07T09:14:24;17.45;;;10.30;;
64188;SDS011;50493;50.970;10.082;2023-05-07T09:16:51;13.63;;;7.45;;
64188;SDS011;50493;50.970;10.082;2023-05-07T09:19:18;15.93;;;9.00;;
64188;SDS011;50493;50.970;10.082;2023-05-07T09:21:49;17.13;;;9.77;;
64188;SDS011;50493;50.970;10.082;2023-05-07T09:24:15;19.98;;;11.30;;
64188;SDS011;50493;50.970;10.082;2023-05-07T09:26:41;19.77;;;10.70;;
64188;SDS011;50493;50.970;10.082;2023-05-07T09:29:06;16.80;;;9.13;;
64188;SDS011;50493;50.970;10.082;2023-05-07T09:31:36;18.42;;;10.88;;
64188;SDS011;50493;50.970;10.082;2023-05-07T09:34:01;17.45;;;10.32;;
64188;SDS011;50493;50.970;10.082;2023-05-07T09:36:27;19.90;;;11.82;;
64188;SDS011;50493;50.970;10.082;2023-05-07T09:38:53;21.92;;;11.88;;
64188;SDS011;50493;50.970;10.082;2023-05-07T09:41:19;17.17;;;10.40;;
64188;SDS011;50493;50.970;10.082;2023-05-07T09:43:44;16.67;;;9.73;;
64188;SDS011;50493;50.970;10.082;2023-05-07T09:46:11;12.93;;;7.93;;
64188;SDS011;50493;50.970;10.082;2023-05-07T09:48:38;14.95;;;8.60;;
64188;SDS011;50493;50.970;10.082;2023-05-07T09:51:06;13.02;;;7.60;;
64188;SDS011;50493;50.970;10.082;2023-05-07T09:53:39;17.08;;;10.07;;
64188;SDS011;50493;50.970;10.082;2023-05-07T09:56:07;19.88;;;11.65;;
64188;SDS011;50493;50.970;10.082;2023-05-07T09:58:33;18.48;;;10.90;;
64188;SDS011;50493;50.970;10.082;2023-05-07T10:01:02;18.77;;;11.05;;
64188;SDS011;50493;50.970;10.082;2023-05-07T10:03:29;19.40;;;11.15;;
64188;SDS011;50493;50.970;10.082;2023-05-07T10:05:57;13.02;;;7.95;;
64188;SDS011;50493;50.970;10.082;2023-05-07T10:08:23;18.02;;;10.77;;
64188;SDS011;50493;50.970;10.082;2023-05-07T10:10:49;13.10;;;8.18;;
64188;SDS011;50493;50.970;10.082;2023-05-07T10:13:16;14.30;;;7.68;;
64188;SDS011;50493;50.970;10.082;2023-05-07T10:15:43;15.05;;;9.65;;
64188;SDS011;50493;50.970;10.082;2023-05-07T10:18:09;15.57;;;8.90;;
64188;SDS011;50493;50.970;10.082;2023-05-07T10:20:37;16.17;;;10.38;;
64188;SDS011;50493;50.970;10.082;2023-05-07T10:23:04;14.65;;;8.55;;
64188;SDS011;50493;50.970;10.082;2023-05-07T10:25:30;15.57;;;9.57;;
64188;SDS011;50493;50.970;10.082;2023-05-07T10:27:57;13.82;;;8.43;;
64188;SDS011;50493;50.970;10.082;2023-05-07T10:30:29;17.85;;;11.55;;
64188;SDS011;50493;50.970;10.082;2023-05-07T10:35:32;15.52;;;9.98;;
64188;SDS011;50493;50.970;10.082;2023-05-07T10:38:02;16.15;;;10.13;;
64188;SDS011;50493;50.970;10.082;2023-05-07T10:40:28;17.60;;;11.70;;
64188;SDS011;50493;50.970;10.082;2023-05-07T10:42:56;18.77;;;11.55;;
64188;SDS011;50493;50.970;10.082;2023-05-07T10:45:23;17.75;;;11.18;;
64188;SDS011;50493;50.970;10.082;2023-05-07T10:50:36;16.77;;;10.35;;
64188;SDS011;50493;50.970;10.082;2023-05-07T10:55:49;19.17;;;11.90;;
64188;SDS011;50493;50.970;10.082;2023-05-07T10:58:22;18.48;;;11.88;;
64188;SDS011;50493;50.970;10.082;2023-05-07T11:00:50;15.85;;;10.40;;
64188;SDS011;50493;50.970;10.082;2023-05-07T11:03:17;17.13;;;10.27;;
64188;SDS011;50493;50.970;10.082;2023-05-07T11:05:43;18.33;;;11.77;;
64188;SDS011;50493;50.970;10.082;2023-05-07T11:08:09;17.20;;;10.18;;
64188;SDS011;50493;50.970;10.082;2023-05-07T11:10:47;18.85;;;11.75;;
64188;SDS011;50493;50.970;10.082;2023-05-07T11:13:13;15.73;;;9.98;;
64188;SDS011;50493;50.970;10.082;2023-05-07T11:15:43;16.58;;;10.65;;
64188;SDS011;50493;50.970;10.082;2023-05-07T11:18:10;17.33;;;11.23;;
64188;SDS011;50493;50.970;10.082;2023-05-07T11:26:21;14.95;;;9.30;;
64188;SDS011;50493;50.970;10.082;2023-05-07T11:28:47;19.30;;;12.90;;
64188;SDS011;50493;50.970;10.082;2023-05-07T11:31:13;16.45;;;9.90;;
64188;SDS011;50493;50.970;10.082;2023-05-07T11:33:38;18.90;;;10.90;;
64188;SDS011;50493;50.970;10.082;2023-05-07T11:36:05;18.55;;;12.32;;
64188;SDS011;50493;50.970;10.082;2023-05-07T11:38:34;14.95;;;9.73;;
64188;SDS011;50493;50.970;10.082;2023-05-07T11:41:00;28.02;;;16.60;;
64188;SDS011;50493;50.970;10.082;2023-05-07T11:43:26;15.15;;;9.93;;
64188;SDS011;50493;50.970;10.082;2023-05-07T11:45:52;16.45;;;10.00;;
64188;SDS011;50493;50.970;10.082;2023-05-07T11:48:17;14.95;;;10.10;;
64188;SDS011;50493;50.970;10.082;2023-05-07T11:50:49;14.77;;;9.10;;
64188;SDS011;50493;50.970;10.082;2023-05-07T11:53:17;26.42;;;16.10;;
64188;SDS011;50493;50.970;10.082;2023-05-07T11:55:43;15.07;;;9.73;;
64188;SDS011;50493;50.970;10.082;2023-05-07T11:58:09;17.23;;;11.88;;
64188;SDS011;50493;50.970;10.082;2023-05-07T12:00:36;16.48;;;11.25;;
64188;SDS011;50493;50.970;10.082;2023-05-07T12:03:03;18.67;;;11.45;;
64188;SDS011;50493;50.970;10.082;2023-05-07T12:05:28;17.67;;;12.25;;
64188;SDS011;50493;50.970;10.082;2023-05-07T12:07:55;18.67;;;10.80;;
64188;SDS011;50493;50.970;10.082;2023-05-07T12:10:23;16.98;;;10.82;;
64188;SDS011;50493;50.970;10.082;2023-05-07T12:12:49;16.75;;;11.45;;
64188;SDS011;50493;50.970;10.082;2023-05-07T12:15:15;19.70;;;12.75;;
64188;SDS011;50493;50.970;10.082;2023-05-07T12:17:40;16.05;;;10.60;;
64188;SDS011;50493;50.970;10.082;2023-05-07T12:20:06;18.85;;;11.85;;
64188;SDS011;50493;50.970;10.082;2023-05-07T12:22:33;15.45;;;10.38;;
64188;SDS011;50493;50.970;10.082;2023-05-07T12:24:58;15.15;;;10.23;;
64188;SDS011;50493;50.970;10.082;2023-05-07T12:27:25;20.08;;;11.60;;
64188;SDS011;50493;50.970;10.082;2023-05-07T12:29:51;20.05;;;13.50;;
64188;SDS011;50493;50.970;10.082;2023-05-07T12:32:17;15.23;;;10.52;;
64188;SDS011;50493;50.970;10.082;2023-05-07T12:34:43;15.30;;;10.38;;
64188;SDS011;50493;50.970;10.082;2023-05-07T12:37:09;16.58;;;11.32;;
64188;SDS011;50493;50.970;10.082;2023-05-07T12:39:35;17.10;;;11.85;;
64188;SDS011;50493;50.970;10.082;2023-05-07T12:42:00;16.60;;;11.25;;
64188;SDS011;50493;50.970;10.082;2023-05-07T12:44:30;15.57;;;10.10;;
64188;SDS011;50493;50.970;10.082;2023-05-07T12:46:56;14.40;;;10.15;;
64188;SDS011;50493;50.970;10.082;2023-05-07T12:49:22;14.75;;;10.57;;
64188;SDS011;50493;50.970;10.082;2023-05-07T12:51:48;14.60;;;10.30;;
64188;SDS011;50493;50.970;10.082;2023-05-07T12:54:14;15.15;;;11.32;;
64188;SDS011;50493;50.970;10.082;2023-05-07T12:56:39;15.57;;;11.38;;
64188;SDS011;50493;50.970;10.082;2023-05-07T12:59:05;15.43;;;10.68;;
64188;SDS011;50493;50.970;10.082;2023-05-07T13:01:33;15.25;;;12.60;;
64188;SDS011;50493;50.970;10.082;2023-05-07T13:04:00;15.02;;;10.73;;
64188;SDS011;50493;50.970;10.082;2023-05-07T13:06:27;13.93;;;10.55;;
64188;SDS011;50493;50.970;10.082;2023-05-07T13:08:53;14.07;;;10.73;;
64188;SDS011;50493;50.970;10.082;2023-05-07T13:11:18;16.52;;;11.27;;
64188;SDS011;50493;50.970;10.082;2023-05-07T13:13:43;14.63;;;11.00;;
64188;SDS011;50493;50.970;10.082;2023-05-07T13:16:09;12.75;;;9.40;;
64188;SDS011;50493;50.970;10.082;2023-05-07T13:18:37;15.93;;;11.57;;
64188;SDS011;50493;50.970;10.082;2023-05-07T13:21:03;16.42;;;11.07;;
64188;SDS011;50493;50.970;10.082;2023-05-07T13:23:29;16.17;;;12.23;;
64188;SDS011;50493;50.970;10.082;2023-05-07T13:25:54;18.25;;;13.30;;
64188;SDS011;50493;50.970;10.082;2023-05-07T13:28:21;14.23;;;10.10;;
64188;SDS011;50493;50.970;10.082;2023-05-07T13:30:47;15.05;;;10.93;;
64188;SDS011;50493;50.970;10.082;2023-05-07T13:33:12;13.68;;;9.30;;
64188;SDS011;50493;50.970;10.082;2023-05-07T13:35:39;14.10;;;10.40;;
64188;SDS011;50493;50.970;10.082;2023-05-07T13:38:04;16.90;;;12.15;;
64188;SDS011;50493;50.970;10.082;2023-05-07T13:40:30;12.88;;;9.75;;
64188;SDS011;50493;50.970;10.082;2023-05-07T13:42:56;15.30;;;10.32;;
64188;SDS011;50493;50.970;10.082;2023-05-07T13:45:23;13.10;;;9.23;;
64188;SDS011;50493;50.970;10.082;2023-05-07T13:47:50;12.88;;;9.63;;
64188;SDS011;50493;50.970;10.082;2023-05-07T13:50:16;12.25;;;8.80;;
64188;SDS011;50493;50.970;10.082;2023-05-07T13:52:43;13.07;;;9.32;;
64188;SDS011;50493;50.970;10.082;2023-05-07T13:55:15;12.25;;;9.02;;
64188;SDS011;50493;50.970;10.082;2023-05-07T13:57:40;15.32;;;11.25;;
64188;SDS011;50493;50.970;10.082;2023-05-07T14:00:06;13.27;;;9.40;;
64188;SDS011;50493;50.970;10.082;2023-05-07T14:02:32;12.73;;;9.10;;
64188;SDS011;50493;50.970;10.082;2023-05-07T14:04:58;13.07;;;9.45;;
64188;SDS011;50493;50.970;10.082;2023-05-07T14:07:23;14.88;;;10.80;;
64188;SDS011;50493;50.970;10.082;2023-05-07T14:09:49;12.07;;;8.40;;
64188;SDS011;50493;50.970;10.082;2023-05-07T14:12:15;13.02;;;9.10;;
64188;SDS011;50493;50.970;10.082;2023-05-07T14:14:40;12.15;;;9.23;;
64188;SDS011;50493;50.970;10.082;2023-05-07T14:17:06;13.13;;;10.05;;
64188;SDS011;50493;50.970;10.082;2023-05-07T14:19:33;14.95;;;9.52;;
64188;SDS011;50493;50.970;10.082;2023-05-07T14:21:58;14.50;;;10.25;;